Time;durP1;ratioP1;P1;durP2;ratioP2;P2;SDS_P1;SDS_P2;PMS_P1;PMS_P2;Temp;Humidity;BMP_temperature;BMP_pressure;BME280_temperature;BME280_humidity;BME280_pressure;Samples;Min_cycle;Max_cycle;Signal;HPM_P1;HPM_P2
2021/12/13 00:00:40;;;;;;;38.05;13.85;;;6.30;99.90;;;;;;5015572;28;20354;-50
2021/12/13 00:03:12;;;;;;;33.03;13.50;;;6.30;99.90;;;;;;5014086;28;20049;-48
2021/12/13 00:05:46;;;;;;;39.75;14.95;;;6.40;99.90;;;;;;5015725;28;20014;-51
2021/12/13 00:08:17;;;;;;;40.88;14.65;;;6.50;99.90;;;;;;5013897;28;20022;-48
2021/12/13 00:10:46;;;;;;;40.85;15.75;;;6.60;99.90;;;;;;5014681;28;20028;-48
2021/12/13 00:13:17;;;;;;;33.08;13.15;;;6.60;99.90;;;;;;5014955;28;20021;-49
2021/12/13 00:15:58;;;;;;;34.97;14.18;;;6.60;99.90;;;;;;5015379;28;20037;-49
2021/12/13 00:18:37;;;;;;;32.03;12.52;;;6.60;99.90;;;;;;5014489;28;20041;-49
2021/12/13 00:21:13;;;;;;;34.58;13.85;;;6.60;99.90;;;;;;5013753;28;20057;-50
2021/12/13 00:23:50;;;;;;;31.90;13.13;;;6.70;99.90;;;;;;5013813;28;20025;-53
2021/12/13 00:26:28;;;;;;;29.55;13.27;;;6.80;99.90;;;;;;5015011;28;20049;-50
2021/12/13 00:28:53;;;;;;;33.53;13.57;;;6.90;99.90;;;;;;5013861;28;20026;-49
2021/12/13 00:31:25;;;;;;;34.50;12.90;;;6.90;99.90;;;;;;5013661;28;20030;-51
2021/12/13 00:34:05;;;;;;;30.45;13.40;;;7.00;99.90;;;;;;5013668;28;20065;-51
2021/12/13 00:36:54;;;;;;;30.83;12.30;;;7.10;99.90;;;;;;5015139;28;20022;-49
2021/12/13 00:39:27;;;;;;;31.88;12.65;;;7.00;99.90;;;;;;5014551;28;20034;-52
2021/12/13 00:41:54;;;;;;;33.58;13.35;;;6.90;99.90;;;;;;5014261;28;20022;-50
2021/12/13 00:44:37;;;;;;;33.55;13.70;;;6.90;99.90;;;;;;5013397;28;20076;-52
2021/12/13 00:47:06;;;;;;;29.63;12.15;;;7.00;99.90;;;;;;5013378;28;20093;-50
2021/12/13 00:49:32;;;;;;;27.88;12.43;;;7.00;99.90;;;;;;5013264;28;20118;-51
2021/12/13 00:51:59;;;;;;;32.80;13.82;;;7.00;99.90;;;;;;5012549;28;20122;-53
2021/12/13 00:54:37;;;;;;;30.50;12.75;;;6.90;99.90;;;;;;5014085;28;20026;-51
2021/12/13 00:57:07;;;;;;;30.23;13.00;;;6.80;99.90;;;;;;5013243;28;20141;-52
2021/12/13 00:59:33;;;;;;;31.65;12.88;;;6.90;99.90;;;;;;5014991;28;20021;-53
2021/12/13 01:02:29;;;;;;;34.03;13.55;;;6.80;99.90;;;;;;5013145;28;20094;-51
2021/12/13 01:05:01;;;;;;;32.20;14.93;;;6.80;99.90;;;;;;5013896;28;20052;-52
2021/12/13 01:07:33;;;;;;;26.15;12.20;;;6.90;99.90;;;;;;5014528;28;20029;-50
2021/12/13 01:10:23;;;;;;;30.85;13.45;;;6.90;99.90;;;;;;5014037;28;20095;-51
2021/12/13 01:12:51;;;;;;;34.08;13.63;;;6.90;99.90;;;;;;5014438;28;20026;-52
2021/12/13 01:15:30;;;;;;;32.78;13.15;;;6.90;99.90;;;;;;5014163;28;20033;-50
2021/12/13 01:18:19;;;;;;;32.53;13.68;;;6.90;99.90;;;;;;5012817;28;20030;-52
2021/12/13 01:21:01;;;;;;;35.83;14.07;;;7.00;99.90;;;;;;5013999;28;20021;-51
2021/12/13 01:23:41;;;;;;;;;;;6.90;99.90;;;;;;5013165;28;20022;-50
2021/12/13 01:26:27;;;;;;;31.00;13.70;;;6.90;99.90;;;;;;5013284;28;19905;-49
2021/12/13 01:28:59;;;;;;;35.97;15.25;;;6.90;99.90;;;;;;5012674;28;20026;-54
2021/12/13 01:31:31;;;;;;;35.92;15.25;;;6.90;99.90;;;;;;5012736;28;20022;-50
2021/12/13 01:34:00;;;;;;;32.30;13.55;;;6.90;99.90;;;;;;5013399;28;20026;-51
2021/12/13 01:36:41;;;;;;;36.47;13.75;;;6.90;99.90;;;;;;5012537;28;20112;-51
2021/12/13 01:39:15;;;;;;;35.80;14.73;;;6.90;99.90;;;;;;5012639;28;20057;-48
2021/12/13 01:41:44;;;;;;;33.85;14.02;;;6.90;99.90;;;;;;5012550;28;20121;-49
2021/12/13 01:44:24;;;;;;;29.27;13.20;;;6.80;99.90;;;;;;5013309;28;20026;-50
2021/12/13 01:47:00;;;;;;;34.15;14.05;;;6.80;99.90;;;;;;5014041;28;20101;-49
2021/12/13 01:49:48;;;;;;;34.40;14.00;;;6.80;99.90;;;;;;5013626;28;20049;-48
2021/12/13 01:52:21;;;;;;;37.90;14.68;;;6.80;99.90;;;;;;5012405;28;20018;-49
2021/12/13 01:54:48;;;;;;;38.72;15.05;;;6.80;99.90;;;;;;5013822;28;20029;-49
2021/12/13 01:59:53;;;;;;;37.78;13.90;;;6.40;99.90;;;;;;5014032;28;20069;-49
2021/12/13 02:02:28;;;;;;;33.95;14.30;;;6.30;99.90;;;;;;5015061;28;20061;-50
2021/12/13 02:05:15;;;;;;;36.58;14.90;;;6.40;99.90;;;;;;5020563;28;20025;-49
2021/12/13 02:07:44;;;;;;;40.67;14.93;;;6.50;99.90;;;;;;5020374;28;20022;-49
2021/12/13 02:10:20;;;;;;;39.42;15.10;;;6.50;99.90;;;;;;5020230;28;20029;-50
2021/12/13 02:12:46;;;;;;;36.75;14.73;;;6.60;99.90;;;;;;5020302;28;20026;-49
2021/12/13 02:18:00;;;;;;;34.58;14.15;;;6.70;99.90;;;;;;5020435;28;20037;-49
2021/12/13 02:20:28;;;;;;;33.40;13.73;;;6.70;99.90;;;;;;5018633;28;20029;-52
2021/12/13 02:22:55;;;;;;;35.25;14.55;;;6.80;99.90;;;;;;5018640;28;20029;-48
2021/12/13 02:25:33;;;;;;;32.00;13.60;;;6.70;99.90;;;;;;5019473;28;20113;-49
2021/12/13 02:28:03;;;;;;;32.45;13.15;;;6.70;99.90;;;;;;5020088;28;20096;-48
2021/12/13 02:30:56;;;;;;;35.55;14.05;;;6.70;99.90;;;;;;5018529;28;20030;-49
2021/12/13 02:33:26;;;;;;;32.10;12.98;;;6.80;99.90;;;;;;5020222;28;20037;-53
2021/12/13 02:36:06;;;;;;;31.77;12.57;;;6.80;99.90;;;;;;5019947;28;20045;-50
2021/12/13 02:38:33;;;;;;;32.55;13.68;;;6.80;99.90;;;;;;5019779;28;20026;-48
2021/12/13 02:41:00;;;;;;;30.25;13.10;;;6.80;99.90;;;;;;5019208;28;20026;-49
2021/12/13 02:43:31;;;;;;;33.00;13.50;;;6.80;99.90;;;;;;5019780;28;20481;-51
2021/12/13 02:45:59;;;;;;;31.73;12.93;;;6.90;99.90;;;;;;5019028;28;20065;-50
2021/12/13 02:48:33;;;;;;;33.05;11.82;;;6.90;99.90;;;;;;5019546;28;20033;-53
2021/12/13 02:51:28;;;;;;;40.17;14.63;;;7.10;99.90;;;;;;5018509;28;20025;-51
2021/12/13 02:54:00;;;;;;;35.33;14.02;;;7.00;99.90;;;;;;5012840;28;20064;-49
2021/12/13 02:56:28;;;;;;;;;;;7.00;99.90;;;;;;5019122;28;20033;-49
2021/12/13 02:58:55;;;;;;;32.45;13.65;;;7.10;99.90;;;;;;5019607;28;19929;-49
2021/12/13 03:01:29;;;;;;;33.50;13.02;;;7.10;99.90;;;;;;5019531;28;20502;-49
2021/12/13 03:04:00;;;;;;;32.60;13.57;;;7.20;99.90;;;;;;5019560;28;20025;-52
2021/12/13 03:06:31;;;;;;;32.78;12.88;;;7.20;99.90;;;;;;5019549;28;20103;-53
2021/12/13 03:09:10;;;;;;;31.52;13.48;;;7.20;99.90;;;;;;5018235;28;20033;-52
2021/12/13 03:11:36;;;;;;;31.38;12.85;;;7.10;99.90;;;;;;5018726;28;20107;-49
2021/12/13 03:14:13;;;;;;;30.15;12.65;;;7.10;99.90;;;;;;5017344;28;20026;-53
2021/12/13 03:17:03;;;;;;;28.25;12.27;;;7.10;99.90;;;;;;5016417;28;20607;-51
2021/12/13 03:19:38;;;;;;;28.92;12.95;;;7.20;99.90;;;;;;5014917;28;20116;-52
2021/12/13 03:22:40;;;;;;;30.90;13.30;;;7.40;99.90;;;;;;5016241;28;20096;-52
2021/12/13 03:25:09;;;;;;;36.10;14.02;;;7.20;99.90;;;;;;5015490;28;20022;-51
2021/12/13 03:28:05;;;;;;;34.28;14.10;;;7.00;99.90;;;;;;5016399;28;20049;-50
2021/12/13 03:30:46;;;;;;;30.42;13.65;;;7.00;99.90;;;;;;5015193;28;20113;-53
2021/12/13 03:33:15;;;;;;;30.57;12.73;;;7.10;99.90;;;;;;5016167;28;20028;-56
2021/12/13 03:35:46;;;;;;;34.45;13.25;;;7.20;99.90;;;;;;5015094;28;20025;-52
2021/12/13 03:38:32;;;;;;;35.50;14.00;;;7.30;99.90;;;;;;5014539;28;20073;-51
2021/12/13 03:41:02;;;;;;;36.10;14.07;;;7.20;99.90;;;;;;5014509;28;20033;-50
2021/12/13 03:43:40;;;;;;;31.08;14.05;;;7.20;99.90;;;;;;5015826;28;20488;-51
2021/12/13 03:46:11;;;;;;;33.53;14.80;;;7.10;99.90;;;;;;5015426;28;20026;-51
2021/12/13 03:48:38;;;;;;;34.17;14.68;;;7.00;99.90;;;;;;5016012;28;20022;-53
2021/12/13 03:51:09;;;;;;;30.10;14.23;;;6.90;99.90;;;;;;5015666;28;20025;-52
2021/12/13 03:53:36;;;;;;;32.23;13.17;;;7.00;99.90;;;;;;5015311;28;20089;-52
2021/12/13 03:56:16;;;;;;;30.27;13.43;;;7.10;99.90;;;;;;5014351;28;20037;-52
2021/12/13 03:58:49;;;;;;;35.00;15.68;;;7.00;99.90;;;;;;5015433;28;20032;-51
2021/12/13 04:01:28;;;;;;;33.67;13.45;;;7.10;99.90;;;;;;5015448;28;20026;-51
2021/12/13 04:03:58;;;;;;;30.95;13.60;;;7.10;99.90;;;;;;5015469;28;20026;-51
2021/12/13 04:06:24;;;;;;;33.92;13.75;;;7.00;99.90;;;;;;5015918;28;20041;-53
2021/12/13 04:08:56;;;;;;;34.38;14.43;;;7.00;99.90;;;;;;5014615;28;20469;-51
2021/12/13 04:11:23;;;;;;;;;;;7.00;99.90;;;;;;5014692;28;20029;-51
2021/12/13 04:14:09;;;;;;;27.15;12.27;;;7.00;99.90;;;;;;5014416;28;20004;-53
2021/12/13 04:17:02;;;;;;;35.30;14.60;;;7.10;99.90;;;;;;5014017;28;20030;-54
2021/12/13 04:19:46;;;;;;;32.75;13.70;;;7.10;99.90;;;;;;5014108;28;20026;-54
2021/12/13 04:22:13;;;;;;;34.55;13.98;;;7.10;99.90;;;;;;5013881;28;20018;-50
2021/12/13 04:24:59;;;;;;;38.35;14.90;;;7.00;99.90;;;;;;5014315;28;20109;-54
2021/12/13 04:27:42;;;;;;;33.20;12.95;;;7.10;99.90;;;;;;5014471;28;20028;-51
2021/12/13 04:30:20;;;;;;;29.65;13.05;;;7.10;99.90;;;;;;5014814;28;20029;-49
2021/12/13 04:32:50;;;;;;;36.35;14.48;;;7.10;99.90;;;;;;5013661;28;20101;-50
2021/12/13 04:35:16;;;;;;;35.03;13.80;;;7.10;99.90;;;;;;5013624;28;20033;-54
2021/12/13 04:37:51;;;;;;;36.72;13.75;;;7.20;99.90;;;;;;5013932;28;20022;-50
2021/12/13 04:40:21;;;;;;;37.60;13.70;;;7.20;99.90;;;;;;5015527;28;20072;-55
2021/12/13 04:43:01;;;;;;;39.65;15.13;;;7.30;99.90;;;;;;5014975;28;20022;-52
2021/12/13 04:45:30;;;;;;;34.83;15.13;;;7.30;99.90;;;;;;5014532;28;20022;-51
2021/12/13 04:48:07;;;;;;;32.72;13.85;;;7.20;99.90;;;;;;5013193;28;20042;-51
2021/12/13 04:50:44;;;;;;;41.13;14.88;;;7.20;99.90;;;;;;5013262;28;20491;-53
2021/12/13 04:53:18;;;;;;;38.42;15.10;;;7.10;99.90;;;;;;5014611;28;20388;-54
2021/12/13 04:55:44;;;;;;;31.33;12.55;;;7.00;99.90;;;;;;5014553;28;20022;-50
2021/12/13 04:58:12;;;;;;;32.53;14.13;;;6.90;99.90;;;;;;5013174;28;20503;-51
2021/12/13 05:00:42;;;;;;;35.55;14.05;;;7.00;99.90;;;;;;5014643;28;20105;-49
2021/12/13 05:03:11;;;;;;;36.25;14.77;;;7.00;99.90;;;;;;5013470;28;20044;-50
2021/12/13 05:05:37;;;;;;;36.10;12.93;;;7.10;99.90;;;;;;5013661;28;20045;-53
2021/12/13 05:08:07;;;;;;;32.03;13.65;;;7.20;99.90;;;;;;5012926;28;20072;-49
2021/12/13 05:10:33;;;;;;;35.35;13.52;;;7.30;99.90;;;;;;5012926;28;20029;-55
2021/12/13 05:13:02;;;;;;;38.30;14.25;;;7.40;99.90;;;;;;5012962;28;20032;-51
2021/12/13 05:15:30;;;;;;;39.13;16.58;;;7.40;99.90;;;;;;5013260;28;20026;-55
2021/12/13 05:17:59;;;;;;;33.97;14.35;;;7.50;99.90;;;;;;5014031;28;20030;-53
2021/12/13 05:20:30;;;;;;;34.10;14.63;;;7.50;99.90;;;;;;5012726;28;20032;-54
2021/12/13 05:23:09;;;;;;;37.65;16.15;;;7.50;99.90;;;;;;5012852;28;20022;-51
2021/12/13 05:25:38;;;;;;;38.83;16.17;;;7.50;99.90;;;;;;5014012;28;20026;-50
2021/12/13 05:28:11;;;;;;;38.63;16.20;;;7.30;99.90;;;;;;5014188;28;20117;-50
2021/12/13 05:30:46;;;;;;;31.75;14.65;;;7.10;99.90;;;;;;5012596;28;20080;-51
2021/12/13 05:33:15;;;;;;;33.35;15.10;;;7.10;99.90;;;;;;5012610;28;20120;-51
2021/12/13 05:35:50;;;;;;;36.60;15.77;;;7.10;99.90;;;;;;5012557;28;20030;-49
2021/12/13 05:38:40;;;;;;;32.75;14.75;;;7.10;99.90;;;;;;5012011;28;20022;-49
2021/12/13 05:41:09;;;;;;;34.65;15.07;;;7.20;99.90;;;;;;5012430;28;20029;-52
2021/12/13 05:43:48;;;;;;;41.03;15.60;;;7.10;99.90;;;;;;5012483;28;20042;-55
2021/12/13 05:46:18;;;;;;;33.95;13.85;;;7.20;99.90;;;;;;5013335;28;20025;-54
2021/12/13 05:49:00;;;;;;;37.72;16.27;;;7.20;99.90;;;;;;5012469;28;20022;-50
2021/12/13 05:51:45;;;;;;;36.30;15.30;;;7.20;99.90;;;;;;5013979;28;20516;-54
2021/12/13 05:54:12;;;;;;;32.63;14.25;;;7.20;99.90;;;;;;5014002;28;20049;-51
2021/12/13 05:56:48;;;;;;;33.85;14.70;;;7.20;99.90;;;;;;5012356;28;20489;-56
2021/12/13 05:59:55;;;;;;;33.35;14.27;;;7.20;99.90;;;;;;5013099;28;20030;-53
2021/12/13 06:02:57;;;;;;;37.38;15.02;;;7.40;99.90;;;;;;4980666;28;20038;-54
2021/12/13 06:05:24;;;;;;;34.17;14.38;;;7.40;99.90;;;;;;5012624;28;20480;-52
2021/12/13 06:08:23;;;;;;;36.17;15.73;;;7.50;99.90;;;;;;5012503;28;20037;-50
2021/12/13 06:11:07;;;;;;;33.70;14.57;;;7.40;99.90;;;;;;5005026;28;20053;-50
2021/12/13 06:13:46;;;;;;;31.73;14.32;;;7.30;99.90;;;;;;5012258;28;20026;-52
2021/12/13 06:16:49;;;;;;;30.48;13.95;;;7.20;99.90;;;;;;5012180;28;20104;-48
2021/12/13 06:19:50;;;;;;;32.17;14.80;;;7.10;99.90;;;;;;5006739;28;20030;-54
2021/12/13 06:22:21;;;;;;;33.47;14.65;;;7.00;99.90;;;;;;5013635;28;20029;-52
2021/12/13 06:24:50;;;;;;;35.58;14.93;;;7.00;99.90;;;;;;5012224;28;20113;-50
2021/12/13 06:27:25;;;;;;;34.30;14.77;;;7.00;99.90;;;;;;5013536;28;20109;-52
2021/12/13 06:29:59;;;;;;;32.17;14.35;;;7.00;99.90;;;;;;5012068;28;20026;-51
2021/12/13 06:32:34;;;;;;;46.17;19.02;;;7.00;99.90;;;;;;5012062;28;20057;-53
2021/12/13 06:35:58;;;;;;;46.97;20.45;;;7.00;99.90;;;;;;5013222;28;20122;-49
2021/12/13 06:38:35;;;;;;;55.22;21.98;;;7.00;99.90;;;;;;4992009;28;20089;-51
2021/12/13 06:41:21;;;;;;;36.15;15.80;;;7.00;99.90;;;;;;4991501;28;20041;-52
2021/12/13 06:43:54;;;;;;;36.45;16.23;;;6.90;99.90;;;;;;4991237;28;20036;-54
2021/12/13 06:46:22;;;;;;;43.03;17.60;;;6.90;99.90;;;;;;5012375;28;20049;-54
2021/12/13 06:48:51;;;;;;;42.67;17.02;;;6.80;99.90;;;;;;5012694;28;20075;-51
2021/12/13 06:51:19;;;;;;;39.30;16.83;;;6.90;99.90;;;;;;5017167;28;20109;-49
2021/12/13 06:54:04;;;;;;;42.80;17.50;;;6.80;99.90;;;;;;5015628;28;20129;-50
2021/12/13 06:56:32;;;;;;;41.75;17.25;;;6.90;99.90;;;;;;5016418;28;20113;-51
2021/12/13 06:59:00;;;;;;;36.40;15.50;;;7.00;99.90;;;;;;5016581;28;20096;-53
2021/12/13 07:01:32;;;;;;;36.42;15.32;;;7.00;99.90;;;;;;5016490;28;20029;-55
2021/12/13 07:04:05;;;;;;;35.60;16.17;;;7.00;99.90;;;;;;5017206;28;20026;-52
2021/12/13 07:06:31;;;;;;;37.40;16.17;;;6.90;99.90;;;;;;5016579;28;20104;-51
2021/12/13 07:09:23;;;;;;;38.88;16.80;;;6.80;99.90;;;;;;5015177;28;20021;-53
2021/12/13 07:11:51;;;;;;;41.13;16.33;;;6.80;99.90;;;;;;5016725;28;20029;-50
2021/12/13 07:14:20;;;;;;;38.60;17.13;;;6.80;99.90;;;;;;5015362;28;20068;-53
2021/12/13 07:16:52;;;;;;;32.15;15.45;;;6.80;99.90;;;;;;5015308;28;20041;-50
2021/12/13 07:19:26;;;;;;;35.95;15.85;;;6.80;99.90;;;;;;5015060;28;20026;-50
2021/12/13 07:21:58;;;;;;;38.42;15.52;;;6.80;99.90;;;;;;5016220;28;20057;-52
2021/12/13 07:24:28;;;;;;;32.47;15.27;;;6.80;99.90;;;;;;5016249;28;20105;-52
2021/12/13 07:27:07;;;;;;;35.38;14.98;;;6.90;99.90;;;;;;5016040;28;20396;-55
2021/12/13 07:29:45;;;;;;;38.03;17.02;;;6.90;99.90;;;;;;5016015;28;20018;-50
2021/12/13 07:32:21;;;;;;;35.05;15.10;;;6.90;99.90;;;;;;5016630;28;20028;-50
2021/12/13 07:34:54;;;;;;;35.10;15.07;;;6.90;99.90;;;;;;5014756;28;20022;-50
2021/12/13 07:37:53;;;;;;;34.45;14.85;;;6.80;99.90;;;;;;5016316;28;20049;-49
2021/12/13 07:40:41;;;;;;;33.75;14.82;;;6.70;99.90;;;;;;4993015;28;20176;-51
2021/12/13 07:43:31;;;;;;;30.48;14.15;;;6.70;99.90;;;;;;5016175;28;20022;-51
2021/12/13 07:45:58;;;;;;;31.42;14.50;;;6.80;99.90;;;;;;5014595;28;20017;-51
2021/12/13 07:48:32;;;;;;;34.03;14.65;;;6.90;99.90;;;;;;5015216;28;20018;-54
2021/12/13 07:50:58;;;;;;;28.45;13.32;;;7.00;99.90;;;;;;5014561;28;20082;-52
2021/12/13 07:53:27;;;;;;;29.33;13.50;;;7.20;99.90;;;;;;5015819;28;20488;-50
2021/12/13 07:55:53;;;;;;;31.13;14.52;;;7.10;99.90;;;;;;5015670;28;20068;-52
2021/12/13 07:58:44;;;;;;;30.83;14.15;;;7.00;99.90;;;;;;5015478;28;20026;-55
2021/12/13 08:01:14;;;;;;;28.90;13.13;;;6.80;99.90;;;;;;5015107;28;20025;-56
2021/12/13 08:04:07;;;;;;;33.05;14.05;;;6.80;99.90;;;;;;5015488;28;20093;-52
2021/12/13 08:06:38;;;;;;;34.20;13.57;;;6.80;99.90;;;;;;5014440;28;20029;-50
2021/12/13 08:09:10;;;;;;;42.90;15.27;;;6.70;99.90;;;;;;5015317;28;20018;-51
2021/12/13 08:11:42;;;;;;;37.80;16.95;;;6.70;99.90;;;;;;5015346;28;20061;-49
2021/12/13 08:14:09;;;;;;;35.58;15.07;;;6.70;99.90;;;;;;5013965;28;20492;-51
2021/12/13 08:16:40;;;;;;;47.20;16.52;;;6.70;99.90;;;;;;5013930;28;20037;-52
2021/12/13 08:19:27;;;;;;;38.63;14.60;;;6.60;99.90;;;;;;5013807;28;20041;-54
2021/12/13 08:21:57;;;;;;;35.13;14.95;;;6.70;99.90;;;;;;5013816;28;20080;-53
2021/12/13 08:24:40;;;;;;;38.45;15.82;;;6.70;99.90;;;;;;5015119;28;20033;-51
2021/12/13 08:27:16;;;;;;;36.95;15.40;;;6.70;99.90;;;;;;5013837;28;20033;-50
2021/12/13 08:29:43;;;;;;;32.88;15.05;;;6.80;99.90;;;;;;5014550;28;20048;-53
2021/12/13 08:32:19;;;;;;;36.55;14.65;;;6.90;99.90;;;;;;5013739;28;20041;-49
2021/12/13 08:34:53;;;;;;;39.08;15.95;;;7.10;99.90;;;;;;5015211;28;20026;-50
2021/12/13 08:37:31;;;;;;;36.03;14.65;;;7.20;99.90;;;;;;5014257;28;20017;-50
2021/12/13 08:40:11;;;;;;;36.47;15.27;;;7.20;99.90;;;;;;5015371;28;20089;-52
2021/12/13 08:42:42;;;;;;;35.05;14.30;;;7.10;99.90;;;;;;5013511;28;20018;-51
2021/12/13 08:45:19;;;;;;;32.83;14.70;;;7.10;99.90;;;;;;5015171;28;20022;-49
2021/12/13 08:47:49;;;;;;;30.05;13.57;;;7.00;99.90;;;;;;5014946;28;20018;-53
2021/12/13 08:50:26;;;;;;;31.90;13.57;;;7.10;99.90;;;;;;5014622;28;20025;-52
2021/12/13 08:53:09;;;;;;;30.73;14.85;;;7.20;99.90;;;;;;5014982;28;20465;-54
2021/12/13 08:55:50;;;;;;;28.73;11.73;;;7.20;99.90;;;;;;5014876;28;20025;-52
2021/12/13 08:58:19;;;;;;;29.02;13.35;;;7.30;99.90;;;;;;5013344;28;20120;-49
2021/12/13 09:00:54;;;;;;;32.42;12.70;;;7.20;99.90;;;;;;5014940;28;20041;-51
2021/12/13 09:03:30;;;;;;;32.55;13.95;;;7.30;99.90;;;;;;5014281;28;20045;-51
2021/12/13 09:06:02;;;;;;;30.23;12.88;;;7.20;99.90;;;;;;5013968;28;20109;-52
2021/12/13 09:08:36;;;;;;;;;;;7.30;99.90;;;;;;5014981;28;20100;-51
2021/12/13 09:11:12;;;;;;;33.85;13.48;;;7.30;99.90;;;;;;5013540;28;19905;-51
2021/12/13 09:14:16;;;;;;;30.30;12.80;;;7.40;99.90;;;;;;5014048;28;20022;-51
2021/12/13 09:17:07;;;;;;;28.17;11.45;;;7.40;99.90;;;;;;5013962;28;20057;-52
2021/12/13 09:19:47;;;;;;;36.88;15.40;;;7.60;99.90;;;;;;5014116;28;20030;-51
2021/12/13 09:22:31;;;;;;;43.65;15.63;;;7.40;99.90;;;;;;5014055;28;20105;-54
2021/12/13 09:25:15;;;;;;;50.17;18.50;;;7.30;99.90;;;;;;5014037;28;20018;-52
2021/12/13 09:27:55;;;;;;;46.80;17.77;;;7.30;99.90;;;;;;5014181;28;20062;-52
2021/12/13 09:30:33;;;;;;;35.75;15.13;;;7.30;99.90;;;;;;5013877;28;20387;-52
2021/12/13 09:33:17;;;;;;;40.10;14.90;;;7.20;99.90;;;;;;5013341;28;20077;-51
2021/12/13 09:35:48;;;;;;;40.20;16.63;;;7.20;99.90;;;;;;5014528;28;20018;-51
2021/12/13 09:38:34;;;;;;;40.17;14.82;;;7.30;99.90;;;;;;5012585;28;20042;-52
2021/12/13 09:41:17;;;;;;;36.65;15.95;;;7.30;99.90;;;;;;5013604;28;20477;-53
2021/12/13 09:44:15;;;;;;;37.10;14.93;;;7.30;99.90;;;;;;5012793;28;20028;-56
2021/12/13 09:47:00;;;;;;;37.70;15.23;;;7.30;99.90;;;;;;5012465;28;20057;-53
2021/12/13 09:49:40;;;;;;;43.50;15.57;;;7.20;99.90;;;;;;5013649;28;20022;-52
2021/12/13 09:52:14;;;;;;;36.05;15.40;;;7.30;99.90;;;;;;5012753;28;20022;-49
2021/12/13 09:54:54;;;;;;;35.47;13.43;;;7.30;99.90;;;;;;5013944;28;20453;-49
2021/12/13 09:57:45;;;;;;;35.05;13.98;;;7.20;99.90;;;;;;5013584;28;20025;-52
2021/12/13 10:00:20;;;;;;;34.67;14.27;;;7.20;99.90;;;;;;5005049;28;20040;-50
2021/12/13 10:02:50;;;;;;;35.45;14.88;;;7.20;99.90;;;;;;5012342;28;20117;-49
2021/12/13 10:05:20;;;;;;;31.83;13.23;;;7.30;99.90;;;;;;5013479;28;20069;-48
2021/12/13 10:07:53;;;;;;;33.50;14.02;;;7.30;99.90;;;;;;5014004;28;20030;-53
2021/12/13 10:10:24;;;;;;;34.63;14.60;;;7.20;99.90;;;;;;5013094;28;20108;-50
2021/12/13 10:12:56;;;;;;;30.95;14.52;;;7.30;99.90;;;;;;5012226;28;20025;-55
2021/12/13 10:15:25;;;;;;;;;;;7.40;99.90;;;;;;5013987;28;20080;-51
2021/12/13 10:17:55;;;;;;;31.02;12.60;;;7.40;99.90;;;;;;5013312;28;19905;-54
2021/12/13 10:20:48;;;;;;;30.35;13.10;;;7.30;99.90;;;;;;5012296;28;20022;-49
2021/12/13 10:23:19;;;;;;;32.13;14.75;;;7.50;99.90;;;;;;5014577;28;20026;-52
2021/12/13 10:25:51;;;;;;;30.95;13.88;;;7.60;99.90;;;;;;5017720;28;20044;-50
2021/12/13 10:28:19;;;;;;;;;;;7.70;99.90;;;;;;5017245;28;20079;-51
2021/12/13 10:30:50;;;;;;;23.38;11.02;;;8.00;99.90;;;;;;5017260;28;19913;-51
2021/12/13 10:33:19;;;;;;;28.52;12.70;;;8.20;99.90;;;;;;5016068;28;20395;-50
2021/12/13 10:35:46;;;;;;;27.52;12.00;;;8.20;99.90;;;;;;5016377;28;20032;-56
2021/12/13 10:38:24;;;;;;;25.60;9.82;;;8.20;99.90;;;;;;5017084;28;20034;-50
2021/12/13 10:40:56;;;;;;;23.23;10.30;;;8.40;99.90;;;;;;5015847;28;20080;-51
2021/12/13 10:43:28;;;;;;;32.28;11.73;;;8.50;99.90;;;;;;5015782;28;20104;-49
2021/12/13 10:46:11;;;;;;;25.13;10.90;;;8.60;99.90;;;;;;5015784;28;20125;-48
2021/12/13 10:48:45;;;;;;;26.30;11.65;;;8.70;99.90;;;;;;5016478;28;20045;-51
2021/12/13 10:51:33;;;;;;;27.60;11.95;;;8.50;99.90;;;;;;5015678;28;20108;-53
2021/12/13 10:54:03;;;;;;;26.83;11.43;;;8.30;99.90;;;;;;5015783;28;20021;-53
2021/12/13 10:56:34;;;;;;;27.58;12.27;;;8.30;99.90;;;;;;5016369;28;20030;-49
2021/12/13 10:59:04;;;;;;;25.13;12.40;;;8.20;99.90;;;;;;5016464;28;20022;-50
2021/12/13 11:01:36;;;;;;;28.80;12.57;;;8.00;99.90;;;;;;5016813;28;20118;-52
2021/12/13 11:04:06;;;;;;;25.33;12.20;;;8.10;99.90;;;;;;5015464;28;20032;-50
2021/12/13 11:06:35;;;;;;;30.27;12.30;;;8.20;99.90;;;;;;5016793;28;20033;-53
2021/12/13 11:09:04;;;;;;;25.80;11.63;;;8.30;99.90;;;;;;5016578;28;20403;-51
2021/12/13 11:11:37;;;;;;;27.67;11.73;;;8.20;99.90;;;;;;5016485;28;20022;-50
2021/12/13 11:14:07;;;;;;;22.25;9.82;;;8.20;99.90;;;;;;5015770;28;20030;-50
2021/12/13 11:16:42;;;;;;;24.40;11.40;;;8.10;99.90;;;;;;5015147;28;20033;-49
2021/12/13 11:19:13;;;;;;;29.55;12.57;;;8.20;99.90;;;;;;5016473;28;20117;-51
2021/12/13 11:21:43;;;;;;;34.10;14.15;;;8.10;99.90;;;;;;5016093;28;20026;-52
2021/12/13 11:24:14;;;;;;;30.20;13.77;;;8.20;99.90;;;;;;5015061;28;20052;-52
2021/12/13 11:26:42;;;;;;;33.10;13.97;;;8.30;99.90;;;;;;5016286;28;20022;-54
2021/12/13 11:29:10;;;;;;;29.25;11.98;;;8.40;99.90;;;;;;5015207;28;20276;-54
2021/12/13 11:31:55;;;;;;;30.15;13.73;;;8.60;99.90;;;;;;5016033;28;20022;-53
2021/12/13 11:34:53;;;;;;;31.98;12.73;;;8.50;99.90;;;;;;5014223;28;20026;-50
2021/12/13 11:37:43;;;;;;;32.03;14.02;;;8.50;99.90;;;;;;5014778;28;20032;-52
2021/12/13 11:40:15;;;;;;;36.22;14.90;;;8.50;99.90;;;;;;5015539;28;20062;-53
2021/12/13 11:43:25;;;;;;;38.75;15.82;;;8.50;99.90;;;;;;5014698;28;20022;-49
2021/12/13 11:46:06;;;;;;;39.10;15.85;;;8.50;99.90;;;;;;5015161;28;20112;-51
2021/12/13 11:48:53;;;;;;;37.27;14.60;;;8.30;99.90;;;;;;5014572;28;20061;-52
2021/12/13 11:51:47;;;;;;;38.45;15.55;;;8.20;99.90;;;;;;5014565;28;20025;-55
2021/12/13 11:54:59;;;;;;;40.40;16.15;;;8.20;99.90;;;;;;5015922;28;20052;-50
2021/12/13 11:57:34;;;;;;;35.50;14.32;;;8.40;99.90;;;;;;4996503;28;20034;-50
2021/12/13 12:00:38;;;;;;;39.13;16.45;;;8.50;99.90;;;;;;5014598;28;20033;-49
2021/12/13 12:03:54;;;;;;;32.63;13.90;;;8.50;99.90;;;;;;4994071;28;20133;-52
2021/12/13 12:06:57;;;;;;;27.77;12.95;;;8.60;99.90;;;;;;5003714;28;20034;-55
2021/12/13 12:09:22;;;;;;;29.95;12.93;;;8.60;99.90;;;;;;5014605;28;20076;-53
2021/12/13 12:12:19;;;;;;;32.38;13.10;;;8.60;99.90;;;;;;5015436;28;20026;-54
2021/12/13 12:14:49;;;;;;;31.77;13.85;;;8.50;99.90;;;;;;5015288;28;20029;-54
2021/12/13 12:17:18;;;;;;;35.63;16.00;;;8.50;99.90;;;;;;5015567;28;20030;-53
2021/12/13 12:19:46;;;;;;;28.05;13.07;;;8.60;99.90;;;;;;5015098;28;20026;-50
2021/12/13 12:22:16;;;;;;;27.02;11.48;;;8.60;99.90;;;;;;5013971;28;20026;-47
2021/12/13 12:24:46;;;;;;;25.25;11.93;;;8.80;99.90;;;;;;5015796;28;20026;-51
2021/12/13 12:27:29;;;;;;;26.92;11.95;;;8.80;99.90;;;;;;5015677;28;20041;-50
2021/12/13 12:30:13;;;;;;;27.13;12.15;;;8.70;99.90;;;;;;5013735;28;20495;-48
2021/12/13 12:32:43;;;;;;;27.50;12.82;;;8.80;99.90;;;;;;5015326;28;20050;-52
2021/12/13 12:35:12;;;;;;;22.67;10.90;;;8.80;99.90;;;;;;5013846;28;20032;-50
2021/12/13 12:38:02;;;;;;;26.73;12.20;;;8.70;99.90;;;;;;5014993;28;20048;-52
2021/12/13 12:40:36;;;;;;;24.42;11.05;;;8.90;99.90;;;;;;5011889;28;20092;-51
2021/12/13 12:43:10;;;;;;;25.92;11.70;;;8.90;99.90;;;;;;5015073;28;20075;-48
2021/12/13 12:45:44;;;;;;;25.75;11.73;;;8.70;99.90;;;;;;5014174;28;20361;-47
2021/12/13 12:48:15;;;;;;;28.90;11.85;;;8.60;99.90;;;;;;5012945;28;20137;-47
2021/12/13 12:50:46;;;;;;;29.83;13.07;;;8.60;99.90;;;;;;5013476;28;20109;-48
2021/12/13 12:53:23;;;;;;;26.70;12.07;;;8.40;99.90;;;;;;5013347;28;20079;-47
2021/12/13 12:55:55;;;;;;;27.70;12.63;;;8.40;99.90;;;;;;5014618;28;20026;-50
2021/12/13 12:58:31;;;;;;;33.97;12.65;;;8.30;99.90;;;;;;5013217;28;20022;-54
2021/12/13 13:01:00;;;;;;;26.02;11.43;;;8.40;99.90;;;;;;5014062;28;20110;-48
2021/12/13 13:03:30;;;;;;;23.95;10.80;;;8.60;99.90;;;;;;5013718;28;20076;-52
2021/12/13 13:06:18;;;;;;;22.23;11.07;;;8.60;99.90;;;;;;5013333;28;20160;-49
2021/12/13 13:08:49;;;;;;;23.20;11.73;;;8.50;99.90;;;;;;5014118;28;20022;-48
2021/12/13 13:11:30;;;;;;;30.50;11.07;;;8.50;99.90;;;;;;5014592;28;20034;-50
2021/12/13 13:14:16;;;;;;;26.50;12.63;;;8.50;99.90;;;;;;5013019;28;20026;-51
2021/12/13 13:16:50;;;;;;;29.42;11.98;;;8.60;99.90;;;;;;5012973;28;20037;-53
2021/12/13 13:19:39;;;;;;;26.38;11.45;;;8.70;99.90;;;;;;5013035;28;20026;-47
2021/12/13 13:22:16;;;;;;;25.73;13.18;;;8.60;99.90;;;;;;5014446;28;20030;-52
2021/12/13 13:24:45;;;;;;;31.80;14.20;;;8.50;99.90;;;;;;5012957;28;20026;-47
2021/12/13 13:27:14;;;;;;;26.88;11.85;;;8.70;99.90;;;;;;5012752;28;20105;-48
2021/12/13 13:29:41;;;;;;;31.27;12.98;;;8.70;99.90;;;;;;5014070;28;20022;-47